Time;durP1;ratioP1;P1;durP2;ratioP2;P2;SDS_P1;SDS_P2;PMS_P1;PMS_P2;Temp;Humidity;BMP_temperature;BMP_pressure;BME280_temperature;BME280_humidity;BME280_pressure;Samples;Min_cycle;Max_cycle;Signal;HPM_P1;HPM_P2
2022/09/09 00:01:52;;;;;;;11.37;10.47;;;;;;;24.55;45.08;95286.03;6166489;28;105645;-76
2022/09/09 00:05:01;;;;;;;9.60;8.80;;;;;;;24.55;44.82;95281.47;6155445;28;103381;-78
2022/09/09 00:08:05;;;;;;;10.50;9.60;;;;;;;24.55;44.73;95281.47;6164784;28;103824;-74
2022/09/09 00:11:13;;;;;;;9.23;8.63;;;;;;;24.52;44.58;95276.75;6160554;28;103982;-76
2022/09/09 00:14:24;;;;;;;9.60;8.90;;;;;;;24.54;45.10;95284.47;6157241;28;103312;-76
2022/09/09 00:17:36;;;;;;;8.53;8.03;;;;;;;24.52;44.65;95286.66;6152114;28;103360;-76
2022/09/09 00:20:50;;;;;;;9.60;8.90;;;;;;;24.53;45.04;95293.56;6166357;28;103796;-77
2022/09/09 00:23:55;;;;;;;9.20;8.60;;;;;;;24.49;45.12;95278.16;6165820;28;104935;-77
2022/09/09 00:27:05;;;;;;;10.13;9.43;;;;;;;24.50;44.95;95271.72;6157084;28;103806;-75
2022/09/09 00:30:19;;;;;;;10.87;9.97;;;;;;;24.50;45.07;95269.03;6165351;28;103618;-77
2022/09/09 00:33:25;;;;;;;9.33;8.63;;;;;;;24.48;44.98;95268.56;6164349;28;103090;-76
2022/09/09 00:36:29;;;;;;;9.70;9.00;;;;;;;24.49;44.69;95262.09;6159912;28;103407;-74
2022/09/09 00:39:37;;;;;;;8.80;8.13;;;;;;;24.46;44.67;95257.41;6160499;28;105633;-77
2022/09/09 00:42:43;;;;;;;9.53;8.83;;;;;;;24.47;44.72;95255.50;6163872;28;102958;-79
2022/09/09 00:46:15;;;;;;;8.93;8.30;;;;;;;24.46;44.85;95249.38;6164669;28;102912;-76
2022/09/09 00:49:37;;;;;;;9.33;8.53;;;;;;;24.46;44.95;95238.66;6157289;28;103647;-77
2022/09/09 00:52:48;;;;;;;8.93;8.20;;;;;;;24.47;44.87;95236.78;6165701;28;103487;-76
2022/09/09 00:56:01;;;;;;;9.30;8.53;;;;;;;24.46;45.12;95244.00;6164965;28;106244;-75
2022/09/09 00:59:15;;;;;;;9.20;8.50;;;;;;;24.43;44.89;95241.19;6162027;28;103075;-76
2022/09/09 01:02:28;;;;;;;11.40;10.50;;;;;;;24.45;44.65;95234.41;6160578;28;106043;-76
2022/09/09 01:05:41;;;;;;;13.17;12.07;;;;;;;24.45;44.73;95236.31;6163427;28;104904;-76
2022/09/09 01:09:01;;;;;;;13.10;12.07;;;;;;;24.44;44.90;95237.41;6154309;28;103309;-75
2022/09/09 01:12:12;;;;;;;13.93;12.87;;;;;;;24.44;45.11;95238.19;6156394;28;103608;-75
2022/09/09 01:15:22;;;;;;;14.60;13.60;;;;;;;24.42;45.37;95245.75;6164555;28;103077;-76
2022/09/09 01:18:29;;;;;;;14.33;13.23;;;;;;;24.41;44.80;95246.06;6164346;28;103138;-77
2022/09/09 01:21:50;;;;;;;12.60;11.70;;;;;;;24.40;44.81;95253.31;6161932;28;103774;-75
2022/09/09 01:25:15;;;;;;;10.73;9.83;;;;;;;24.40;44.73;95247.97;6160050;28;104225;-75
2022/09/09 01:28:23;;;;;;;9.83;9.13;;;;;;;24.39;44.31;95243.72;6147554;28;103567;-76
2022/09/09 01:31:31;;;;;;;10.10;9.30;;;;;;;24.39;45.21;95241.03;6164418;28;103251;-75
2022/09/09 01:34:38;;;;;;;10.60;9.80;;;;;;;24.38;44.66;95236.78;6155029;28;103735;-75
2022/09/09 01:37:42;;;;;;;10.70;9.83;;;;;;;24.37;44.91;95237.91;6163968;28;103501;-76
2022/09/09 01:40:51;;;;;;;9.93;9.13;;;;;;;24.37;44.69;95245.13;6163273;28;103717;-75
2022/09/09 01:43:57;;;;;;;10.00;9.20;;;;;;;24.37;44.81;95259.28;6161840;28;103360;-77
2022/09/09 01:47:00;;;;;;;12.97;11.87;;;;;;;24.39;44.73;95253.63;6153745;28;103924;-76
2022/09/09 01:50:04;;;;;;;12.00;11.20;;;;;;;24.37;44.87;95259.28;6160945;28;103421;-77
2022/09/09 01:53:08;;;;;;;11.53;10.63;;;;;;;24.38;44.75;95260.09;6161873;28;103509;-76
2022/09/09 01:56:22;;;;;;;10.40;9.60;;;;;;;24.37;44.74;95259.28;6157694;28;104359;-77
2022/09/09 01:59:40;;;;;;;10.10;9.40;;;;;;;24.36;44.79;95263.06;6161378;28;106726;-75
2022/09/09 02:02:56;;;;;;;10.27;9.57;;;;;;;24.37;45.05;95267.31;6162341;28;103631;-77
2022/09/09 02:06:11;;;;;;;10.40;9.70;;;;;;;24.36;44.78;95263.06;6161934;28;103298;-77
2022/09/09 02:09:20;;;;;;;9.50;8.90;;;;;;;24.36;44.57;95265.75;6154676;28;107045;-77
2022/09/09 02:12:26;;;;;;;11.03;10.17;;;;;;;24.35;44.86;95261.47;6149582;28;102975;-77
2022/09/09 02:15:37;;;;;;;11.00;10.17;;;;;;;24.36;44.96;95257.72;6161352;28;103024;-77
2022/09/09 02:18:46;;;;;;;11.10;10.10;;;;;;;24.34;45.00;95257.22;6158932;28;103069;-77
2022/09/09 02:21:49;;;;;;;11.13;10.33;;;;;;;24.34;44.76;95254.56;6158205;28;105019;-78
2022/09/09 02:24:56;;;;;;;10.03;9.33;;;;;;;24.35;44.81;95245.44;6161262;28;103034;-77
2022/09/09 02:28:00;;;;;;;10.50;9.60;;;;;;;24.33;45.03;95239.59;6162333;28;104841;-75
2022/09/09 02:31:06;;;;;;;9.60;8.90;;;;;;;24.32;44.49;95243.38;6152348;28;105990;-76
2022/09/09 02:34:12;;;;;;;9.37;8.67;;;;;;;24.31;44.90;95244.50;6162922;28;103279;-77
2022/09/09 02:37:18;;;;;;;9.73;8.93;;;;;;;24.30;44.83;95245.59;6163272;28;104081;-76
2022/09/09 02:40:21;;;;;;;8.40;7.80;;;;;;;24.31;44.64;95241.03;6163476;28;105977;-76
2022/09/09 02:43:25;;;;;;;9.47;8.77;;;;;;;24.30;44.77;95258.97;6155954;28;102885;-77
2022/09/09 02:46:45;;;;;;;10.00;9.20;;;;;;;24.30;44.82;95252.81;6163405;28;103192;-77
2022/09/09 02:50:02;;;;;;;13.93;12.93;;;;;;;24.29;45.13;95252.03;6161327;28;104217;-77
2022/09/09 02:53:14;;;;;;;14.80;13.70;;;;;;;24.30;44.94;95260.84;6154754;28;103503;-76
2022/09/09 02:56:22;;;;;;;14.10;13.10;;;;;;;24.30;45.01;95264.31;6161318;28;104192;-77
2022/09/09 02:59:27;;;;;;;14.17;13.07;;;;;;;24.28;44.91;95261.16;6161957;28;104336;-75
2022/09/09 03:02:32;;;;;;;13.43;12.33;;;;;;;24.29;44.74;95253.94;6165595;28;105300;-78
2022/09/09 03:05:35;;;;;;;13.73;12.77;;;;;;;24.28;45.03;95253.16;6157054;28;104514;-76
2022/09/09 03:08:38;;;;;;;12.43;11.43;;;;;;;24.29;44.95;95251.25;6166110;28;102850;-77
2022/09/09 03:11:42;;;;;;;13.13;12.17;;;;;;;24.32;45.06;95261.31;6164962;28;103460;-77
2022/09/09 03:14:46;;;;;;;13.47;12.27;;;;;;;24.32;44.75;95262.09;6165719;28;104073;-77
2022/09/09 03:17:51;;;;;;;13.30;12.27;;;;;;;24.27;44.71;95261.47;6157467;28;103999;-77
2022/09/09 03:20:54;;;;;;;13.43;12.13;;;;;;;24.23;44.75;95257.88;6165791;28;103511;-77
2022/09/09 03:23:57;;;;;;;14.20;13.03;;;;;;;24.22;44.94;95259.75;6164937;28;103423;-78
2022/09/09 03:27:01;;;;;;;14.20;13.10;;;;;;;24.23;45.04;95265.91;6160777;28;104206;-77
2022/09/09 03:30:05;;;;;;;14.53;13.20;;;;;;;24.18;45.00;95258.78;6163121;28;103223;-77
2022/09/09 03:33:09;;;;;;;13.57;12.20;;;;;;;24.09;45.33;95268.72;6165005;28;103524;-76
2022/09/09 03:36:12;;;;;;;11.33;10.43;;;;;;;23.99;45.76;95268.97;6165822;28;103542;-77
2022/09/09 03:39:15;;;;;;;10.90;10.10;;;;;;;24.06;45.58;95264.00;6157472;28;103538;-77
2022/09/09 03:42:19;;;;;;;10.13;9.23;;;;;;;24.15;45.37;95267.44;6165370;28;103352;-76
2022/09/09 03:45:22;;;;;;;11.03;10.13;;;;;;;24.17;45.40;95271.38;6164727;28;102982;-76
2022/09/09 03:48:28;;;;;;;11.03;10.07;;;;;;;24.22;45.33;95264.31;6164449;28;103802;-75
2022/09/09 03:51:31;;;;;;;11.03;10.23;;;;;;;24.22;45.78;95267.78;6153865;28;103334;-75
2022/09/09 03:54:35;;;;;;;10.80;9.80;;;;;;;24.24;45.42;95267.47;6164014;28;103183;-75
2022/09/09 03:57:38;;;;;;;10.97;10.07;;;;;;;24.26;45.86;95271.41;6153583;28;104794;-76
2022/09/09 04:00:42;;;;;;;10.10;9.30;;;;;;;24.30;45.52;95267.00;6154052;28;103360;-76
2022/09/09 04:03:47;;;;;;;11.17;10.03;;;;;;;24.30;46.06;95269.66;6153169;28;103094;-75
2022/09/09 04:06:50;;;;;;;19.20;9.83;;;;;;;24.32;46.30;95269.34;6157766;28;103568;-73
2022/09/09 04:09:54;;;;;;;10.17;9.27;;;;;;;24.35;45.93;95282.09;6149291;28;103042;-73
2022/09/09 04:12:57;;;;;;;13.60;10.27;;;;;;;24.38;46.00;95281.47;6148956;28;103204;-78
2022/09/09 04:16:01;;;;;;;10.43;9.60;;;;;;;24.47;46.15;95279.56;6159055;28;104071;-78
2022/09/09 04:19:06;;;;;;;10.97;9.83;;;;;;;24.51;46.02;95280.50;6157151;28;103917;-77
2022/09/09 04:22:09;;;;;;;11.30;10.40;;;;;;;24.47;45.75;95267.00;6158378;28;103271;-75
2022/09/09 04:25:12;;;;;;;9.47;8.77;;;;;;;23.29;47.18;95271.41;6155518;28;104185;-76
2022/09/09 04:28:16;;;;;;;9.60;8.70;;;;;;;23.60;46.60;95273.28;6164700;28;106820;-75
2022/09/09 04:31:23;;;;;;;9.53;8.73;;;;;;;23.81;45.88;95268.13;6163048;28;103354;-75
2022/09/09 04:34:28;;;;;;;13.43;8.00;;;;;;;23.89;45.58;95270.06;6164659;28;102589;-75
2022/09/09 04:37:31;;;;;;;9.40;8.70;;;;;;;23.97;45.34;95273.84;6157753;28;102996;-75
2022/09/09 04:40:34;;;;;;;10.00;9.00;;;;;;;24.00;45.32;95275.91;6165064;28;103551;-75
2022/09/09 04:43:37;;;;;;;9.37;8.47;;;;;;;24.03;45.05;95278.78;6164756;28;105672;-76
2022/09/09 04:46:41;;;;;;;9.23;8.60;;;;;;;24.02;45.15;95293.22;6157017;28;104452;-76
2022/09/09 04:49:45;;;;;;;9.40;8.70;;;;;;;24.00;45.25;95289.28;6164498;28;103327;-77
2022/09/09 04:52:48;;;;;;;9.53;8.73;;;;;;;23.99;45.14;95285.00;6164461;28;103237;-75
2022/09/09 04:55:51;;;;;;;9.40;8.60;;;;;;;23.99;45.05;95276.97;6164826;28;104636;-74
2022/09/09 04:58:55;;;;;;;9.00;8.30;;;;;;;23.98;45.06;95270.06;6156573;28;103089;-77
2022/09/09 05:02:00;;;;;;;10.20;9.40;;;;;;;23.99;44.81;95260.94;6165507;28;106663;-78
2022/09/09 05:05:06;;;;;;;9.17;8.37;;;;;;;23.97;44.82;95255.13;6164359;28;103828;-77
2022/09/09 05:08:10;;;;;;;10.90;9.90;;;;;;;23.98;44.79;95262.03;6164958;28;105348;-77
2022/09/09 05:11:22;;;;;;;9.30;8.50;;;;;;;23.97;44.85;95257.81;6155449;28;102993;-78
2022/09/09 05:14:25;;;;;;;11.20;9.47;;;;;;;23.98;44.79;95252.13;6164390;28;104454;-77
2022/09/09 05:17:28;;;;;;;9.50;8.80;;;;;;;24.00;44.99;95249.97;6164298;28;103471;-77
2022/09/09 05:20:33;;;;;;;9.90;9.10;;;;;;;24.00;45.12;95249.19;6157668;28;103860;-75
2022/09/09 05:23:37;;;;;;;10.00;9.10;;;;;;;24.01;45.07;95256.09;6164836;28;103512;-76
2022/09/09 05:26:40;;;;;;;10.40;9.50;;;;;;;24.01;45.05;95246.19;6165712;28;103353;-75
2022/09/09 05:29:44;;;;;;;10.60;9.60;;;;;;;23.99;45.21;95240.34;6165435;28;103445;-77
2022/09/09 05:32:48;;;;;;;9.40;8.77;;;;;;;24.00;45.16;95249.97;6156819;28;103388;-77
2022/09/09 05:35:58;;;;;;;9.73;8.73;;;;;;;24.01;45.06;95240.06;6164448;28;103241;-77
2022/09/09 05:39:01;;;;;;;10.30;9.40;;;;;;;24.02;45.13;95229.06;6164552;28;106146;-77
2022/09/09 05:42:05;;;;;;;11.20;8.90;;;;;;;24.05;45.11;95233.78;6163928;28;103373;-77
2022/09/09 05:45:09;;;;;;;9.80;8.90;;;;;;;24.09;44.98;95240.09;6154137;28;103589;-75
2022/09/09 05:48:12;;;;;;;9.30;8.70;;;;;;;24.15;44.87;95243.38;6163890;28;104291;-74
2022/09/09 05:51:18;;;;;;;9.60;8.90;;;;;;;24.20;44.81;95248.59;6162991;28;102989;-74
2022/09/09 05:54:21;;;;;;;9.17;8.47;;;;;;;24.25;44.43;95256.44;6156407;28;103411;-75
2022/09/09 05:57:25;;;;;;;8.97;8.27;;;;;;;24.32;44.54;95256.75;6162535;28;103033;-74
2022/09/09 06:00:31;;;;;;;8.93;8.30;;;;;;;24.38;44.28;95244.03;6162688;28;103357;-74
2022/09/09 06:03:35;;;;;;;9.60;8.60;;;;;;;24.46;44.45;95248.56;6163116;28;103045;-75
2022/09/09 06:06:39;;;;;;;8.37;7.67;;;;;;;24.58;44.43;95258.66;6153982;28;103006;-74
2022/09/09 06:09:43;;;;;;;8.77;8.07;;;;;;;24.66;44.15;95263.97;6162894;28;104291;-73
2022/09/09 06:12:46;;;;;;;7.80;7.20;;;;;;;24.72;44.09;95272.69;6162824;28;103367;-74
2022/09/09 06:15:52;;;;;;;8.30;7.60;;;;;;;24.76;43.91;95276.28;6163180;28;103486;-73
2022/09/09 06:18:57;;;;;;;8.37;7.67;;;;;;;24.84;43.96;95272.81;6154269;28;103337;-74
2022/09/09 06:22:02;;;;;;;8.10;7.27;;;;;;;24.88;43.79;95273.75;6162808;28;103532;-75
2022/09/09 06:25:06;;;;;;;8.67;7.87;;;;;;;24.93;43.94;95254.84;6163345;28;103411;-74
2022/09/09 06:28:09;;;;;;;8.50;7.43;;;;;;;24.99;43.81;95263.50;6159091;28;103062;-74
2022/09/09 06:31:14;;;;;;;8.97;8.20;;;;;;;25.04;43.85;95277.50;6158495;28;104003;-76
2022/09/09 06:34:18;;;;;;;8.20;7.50;;;;;;;25.07;43.62;95266.16;6162768;28;102884;-75
2022/09/09 06:37:23;;;;;;;8.67;7.77;;;;;;;25.14;43.88;95267.56;6165976;28;104318;-77
2022/09/09 06:40:27;;;;;;;8.07;7.47;;;;;;;25.19;43.58;95259.34;6160242;28;105214;-77
2022/09/09 06:43:30;;;;;;;8.50;7.80;;;;;;;25.21;43.46;95255.25;6167402;28;103672;-76
2022/09/09 06:46:33;;;;;;;8.87;7.97;;;;;;;25.25;43.45;95256.19;6167338;28;103043;-75
2022/09/09 06:49:36;;;;;;;9.73;8.83;;;;;;;25.34;43.44;95258.81;6167281;28;103133;-77
2022/09/09 06:52:41;;;;;;;9.50;8.77;;;;;;;25.36;43.19;95262.75;6159163;28;103700;-77
2022/09/09 06:55:44;;;;;;;10.53;9.60;;;;;;;25.39;43.28;95269.41;6167057;28;103228;-77
2022/09/09 06:58:48;;;;;;;10.63;9.70;;;;;;;25.46;43.28;95274.25;6167843;28;103307;-77
2022/09/09 07:01:54;;;;;;;9.83;8.97;;;;;;;25.50;43.17;95273.28;6163532;28;103232;-78
2022/09/09 07:04:59;;;;;;;11.53;9.17;;;;;;;25.52;43.27;95276.41;6162718;28;104200;-76
2022/09/09 07:08:05;;;;;;;9.60;8.73;;;;;;;25.45;43.31;95265.44;6166389;28;103674;-76
2022/09/09 07:11:09;;;;;;;10.53;9.63;;;;;;;25.56;43.33;95276.59;6167493;28;102781;-76
2022/09/09 07:14:14;;;;;;;9.67;8.87;;;;;;;25.56;42.99;95288.09;6157883;28;103011;-77
2022/09/09 07:17:18;;;;;;;9.50;8.70;;;;;;;25.59;43.06;95276.72;6166587;28;103651;-76
2022/09/09 07:20:21;;;;;;;9.90;8.90;;;;;;;25.64;43.03;95273.06;6167178;28;103180;-75
2022/09/09 07:23:26;;;;;;;9.97;9.17;;;;;;;25.66;43.05;95271.63;6166137;28;103327;-74
2022/09/09 07:26:31;;;;;;;9.90;9.10;;;;;;;25.68;43.14;95266.72;6158794;28;102792;-76
2022/09/09 07:29:34;;;;;;;9.77;8.80;;;;;;;25.70;43.21;95266.41;6166698;28;106777;-74
2022/09/09 07:32:37;;;;;;;10.13;8.80;;;;;;;25.70;42.94;95261.03;6166581;28;102994;-75
2022/09/09 07:35:42;;;;;;;9.10;8.30;;;;;;;25.74;42.77;95266.56;6166548;28;103087;-73
2022/09/09 07:38:48;;;;;;;10.23;9.20;;;;;;;25.72;42.75;95258.06;6157036;28;103305;-73
2022/09/09 07:41:51;;;;;;;9.87;8.77;;;;;;;25.72;42.46;95256.16;6167639;28;105023;-76
2022/09/09 07:44:55;;;;;;;8.73;7.83;;;;;;;25.75;42.51;95257.41;6167595;28;103180;-77
2022/09/09 07:47:58;;;;;;;9.87;8.93;;;;;;;25.76;42.33;95267.81;6158702;28;103190;-76
2022/09/09 07:51:07;;;;;;;8.57;7.97;;;;;;;25.80;42.26;95267.94;6165077;28;103661;-75
2022/09/09 07:54:13;;;;;;;8.63;7.90;;;;;;;25.86;42.32;95270.09;6166381;28;103275;-74
2022/09/09 07:57:16;;;;;;;8.60;7.70;;;;;;;25.91;42.41;95277.97;6166336;28;105290;-75
2022/09/09 08:00:22;;;;;;;9.20;7.83;;;;;;;25.96;41.79;95268.97;6157391;28;103485;-75
2022/09/09 08:03:25;;;;;;;7.90;7.20;;;;;;;25.99;41.95;95258.34;6165830;28;104234;-76
2022/09/09 08:06:29;;;;;;;10.00;9.10;;;;;;;26.03;41.82;95253.16;6167127;28;106249;-76
2022/09/09 08:09:33;;;;;;;10.77;8.83;;;;;;;26.08;42.06;95261.03;6166613;28;107692;-75
2022/09/09 08:12:36;;;;;;;8.97;8.07;;;;;;;26.10;41.91;95264.16;6159386;28;106574;-76
2022/09/09 08:15:41;;;;;;;8.73;7.90;;;;;;;26.08;41.66;95263.72;6166640;28;103287;-75
2022/09/09 08:18:45;;;;;;;8.93;8.13;;;;;;;26.07;41.88;95264.81;6167239;28;104022;-76
2022/09/09 08:21:48;;;;;;;8.90;8.20;;;;;;;26.03;42.42;95263.88;6161880;28;105226;-75
2022/09/09 08:24:53;;;;;;;8.83;7.63;;;;;;;25.90;42.92;95252.28;6161040;28;104150;-75
2022/09/09 08:27:56;;;;;;;8.60;7.77;;;;;;;25.93;42.71;95258.88;6166476;28;103232;-76
2022/09/09 08:31:10;;;;;;;8.37;7.67;;;;;;;25.91;42.60;95250.38;6165692;28;103192;-75
2022/09/09 08:34:14;;;;;;;8.20;7.57;;;;;;;25.90;42.63;95248.81;6156759;28;103529;-75
2022/09/09 08:37:17;;;;;;;8.90;8.23;;;;;;;25.85;42.95;95247.09;6165253;28;103278;-76
2022/09/09 08:40:30;;;;;;;8.47;7.67;;;;;;;25.84;43.06;95252.78;6164246;28;103004;-75
2022/09/09 08:43:34;;;;;;;7.67;7.17;;;;;;;25.79;42.98;95253.75;6164229;28;102861;-75
2022/09/09 08:46:52;;;;;;;8.63;7.73;;;;;;;25.74;43.40;95251.25;6156073;28;104970;-75
2022/09/09 08:50:19;;;;;;;8.97;7.97;;;;;;;25.66;43.52;95244.81;6164988;28;105217;-76
2022/09/09 08:53:30;;;;;;;8.73;7.77;;;;;;;25.61;44.27;95247.69;6165678;28;105617;-76
2022/09/09 08:56:34;;;;;;;8.73;8.13;;;;;;;25.54;44.05;95246.63;6157454;28;103214;-76
2022/09/09 08:59:38;;;;;;;8.20;7.60;;;;;;;25.54;44.08;95242.06;6164887;28;104624;-75
2022/09/09 09:03:05;;;;;;;8.37;7.73;;;;;;;25.49;44.02;95238.75;6164990;28;102976;-76
2022/09/09 09:06:23;;;;;;;9.10;8.40;;;;;;;25.49;44.21;95239.56;6165371;28;106362;-75
2022/09/09 09:09:35;;;;;;;9.87;8.70;;;;;;;25.48;44.29;95239.88;6155316;28;103707;-75
2022/09/09 09:12:44;;;;;;;8.00;7.40;;;;;;;25.47;44.28;95236.41;6163576;28;103154;-74
2022/09/09 09:15:53;;;;;;;8.50;7.80;;;;;;;25.48;43.99;95227.25;6164103;28;102970;-76
2022/09/09 09:18:57;;;;;;;8.73;7.93;;;;;;;25.51;44.17;95233.88;6155286;28;103195;-76
2022/09/09 09:22:07;;;;;;;8.33;7.70;;;;;;;25.50;44.59;95241.13;6163330;28;103472;-74
2022/09/09 09:25:17;;;;;;;9.10;8.40;;;;;;;25.49;44.21;95228.84;6163787;28;104253;-75
2022/09/09 09:28:25;;;;;;;8.90;8.10;;;;;;;25.48;44.06;95226.47;6164172;28;103042;-76
2022/09/09 09:31:29;;;;;;;8.57;7.67;;;;;;;25.48;44.20;95226.47;6154434;28;102939;-75
2022/09/09 09:34:32;;;;;;;8.50;7.87;;;;;;;25.46;44.14;95234.06;6163636;28;104351;-76
2022/09/09 09:37:36;;;;;;;8.93;8.23;;;;;;;25.46;44.21;95236.75;6163962;28;102679;-75
2022/09/09 09:40:51;;;;;;;8.63;7.97;;;;;;;25.42;44.44;95228.56;6163854;28;106938;-76
2022/09/09 09:43:55;;;;;;;8.73;8.03;;;;;;;25.44;44.35;95228.25;6157291;28;103017;-76
2022/09/09 09:47:08;;;;;;;8.20;7.50;;;;;;;25.41;44.37;95227.00;6164041;28;103393;-76
2022/09/09 09:50:19;;;;;;;9.30;8.43;;;;;;;25.40;44.61;95220.06;6162731;28;103066;-77
2022/09/09 09:53:25;;;;;;;8.77;7.80;;;;;;;25.49;44.57;95212.75;6155444;28;102860;-77
2022/09/09 09:56:29;;;;;;;8.43;7.70;;;;;;;25.52;44.68;95206.75;6164455;28;105182;-77
2022/09/09 09:59:39;;;;;;;7.87;7.27;;;;;;;25.52;44.36;95201.38;6163233;28;103289;-76
2022/09/09 10:02:44;;;;;;;8.40;7.70;;;;;;;25.50;44.42;95198.25;6162981;28;103210;-76
2022/09/09 10:05:47;;;;;;;8.53;7.83;;;;;;;25.54;44.16;95199.19;6154194;28;103257;-75
2022/09/09 10:08:51;;;;;;;9.20;8.50;;;;;;;25.52;44.68;95205.97;6163988;28;103170;-77
2022/09/09 10:12:06;;;;;;;8.10;7.30;;;;;;;25.56;44.71;95207.69;6162488;28;103090;-77
2022/09/09 10:15:28;;;;;;;8.30;7.60;;;;;;;25.55;44.79;95211.47;6158820;28;104664;-76
2022/09/09 10:18:58;;;;;;;8.70;8.10;;;;;;;25.56;44.82;95212.25;6162429;28;103979;-76
2022/09/09 10:22:16;;;;;;;9.13;7.70;;;;;;;25.54;45.12;95219.81;6164193;28;106857;-76
2022/09/09 10:25:31;;;;;;;7.83;7.27;;;;;;;25.52;44.76;95217.47;6163862;28;103274;-76
2022/09/09 10:28:59;;;;;;;8.27;7.67;;;;;;;25.43;45.00;95214.06;6154676;28;103541;-77
2022/09/09 10:32:23;;;;;;;8.33;7.53;;;;;;;25.38;44.95;95219.59;6163904;28;104021;-77
2022/09/09 10:35:30;;;;;;;8.10;7.50;;;;;;;25.36;45.13;95219.13;6163842;28;104079;-77
2022/09/09 10:38:40;;;;;;;8.23;7.50;;;;;;;25.34;45.16;95215.94;6155152;28;103261;-75
2022/09/09 10:41:54;;;;;;;7.83;7.23;;;;;;;25.35;45.10;95222.91;6162877;28;106730;-77
2022/09/09 10:45:12;;;;;;;8.00;7.30;;;;;;;25.33;45.10;95214.38;6163444;28;103015;-77
2022/09/09 10:48:37;;;;;;;8.33;7.73;;;;;;;25.33;45.27;95217.84;6162373;28;104240;-76
2022/09/09 10:51:49;;;;;;;8.20;7.60;;;;;;;25.32;44.87;95218.16;6154001;28;103487;-76
2022/09/09 10:55:01;;;;;;;8.90;8.20;;;;;;;25.30;45.25;95221.16;6162826;28;103608;-74
2022/09/09 10:58:06;;;;;;;8.17;7.57;;;;;;;25.32;45.23;95226.19;6163032;28;103321;-77
2022/09/09 11:01:16;;;;;;;8.27;7.67;;;;;;;25.29;45.19;95208.09;6154626;28;104519;-75
2022/09/09 11:04:24;;;;;;;8.83;8.23;;;;;;;25.29;45.03;95213.47;6162447;28;103159;-76
2022/09/09 11:07:36;;;;;;;9.33;7.97;;;;;;;25.28;45.08;95217.25;6162549;28;104201;-77
2022/09/09 11:10:45;;;;;;;8.37;7.77;;;;;;;25.26;45.23;95217.56;6162290;28;103341;-77
2022/09/09 11:13:55;;;;;;;8.13;7.53;;;;;;;25.23;45.24;95220.91;6154012;28;103567;-76
2022/09/09 11:17:01;;;;;;;8.47;7.77;;;;;;;25.24;45.06;95227.81;6162506;28;105975;-76
2022/09/09 11:20:15;;;;;;;7.70;7.10;;;;;;;25.24;45.22;95221.69;6160616;28;103003;-76
2022/09/09 11:23:23;;;;;;;8.27;7.60;;;;;;;25.22;45.07;95216.66;6162004;28;102807;-76
2022/09/09 11:26:34;;;;;;;7.97;7.37;;;;;;;25.23;45.10;95212.06;6161174;28;103517;-77
2022/09/09 11:30:00;;;;;;;9.00;8.30;;;;;;;25.23;45.22;95209.41;6166140;28;103219;-77
2022/09/09 11:33:34;;;;;;;8.80;8.10;;;;;;;25.22;45.14;95197.91;6166047;28;102978;-76
2022/09/09 11:36:55;;;;;;;8.57;7.77;;;;;;;25.27;45.18;95186.22;6146995;28;106594;-77
2022/09/09 11:40:19;;;;;;;7.90;7.30;;;;;;;25.26;45.24;95181.97;6165977;28;103671;-77
2022/09/09 11:43:28;;;;;;;8.07;7.57;;;;;;;25.25;45.23;95175.03;6166284;28;106711;-76
2022/09/09 11:46:35;;;;;;;8.27;7.67;;;;;;;25.23;45.25;95166.53;6158637;28;104430;-75
2022/09/09 11:49:42;;;;;;;7.80;7.20;;;;;;;25.24;45.37;95166.22;6165621;28;104977;-77
2022/09/09 11:52:49;;;;;;;8.10;7.40;;;;;;;25.23;45.13;95159.28;6164919;28;103076;-75
2022/09/09 11:56:08;;;;;;;8.70;8.00;;;;;;;25.21;44.92;95141.97;6165240;28;103717;-76
2022/09/09 11:59:21;;;;;;;8.30;7.70;;;;;;;25.24;44.99;95136.75;6156167;28;103511;-74
2022/09/09 12:02:26;;;;;;;8.43;7.87;;;;;;;25.25;45.34;95126.81;6165632;28;106246;-75
2022/09/09 12:05:39;;;;;;;8.50;7.80;;;;;;;25.23;45.32;95129.03;6165915;28;104428;-78
2022/09/09 12:08:47;;;;;;;8.87;8.17;;;;;;;25.24;45.20;95141.31;6160479;28;105233;-75
2022/09/09 12:11:51;;;;;;;8.77;8.17;;;;;;;25.25;44.96;95148.25;6161677;28;103491;-76
2022/09/09 12:15:17;;;;;;;7.90;7.27;;;;;;;25.23;45.31;95137.88;6165575;28;103413;-75
2022/09/09 12:18:25;;;;;;;8.80;8.00;;;;;;;25.25;45.13;95138.31;6164856;28;103060;-74
2022/09/09 12:21:36;;;;;;;8.47;7.83;;;;;;;25.24;45.03;95128.72;6156039;28;106051;-74
2022/09/09 12:24:45;;;;;;;8.20;7.50;;;;;;;25.23;45.16;95119.13;6163905;28;103306;-76
2022/09/09 12:28:03;;;;;;;10.53;8.00;;;;;;;25.25;45.08;95116.88;6164943;28;103140;-76
2022/09/09 12:31:13;;;;;;;8.33;7.63;;;;;;;25.27;45.32;95113.88;6161255;28;104413;-76
2022/09/09 12:34:25;;;;;;;8.83;7.93;;;;;;;25.28;45.09;95110.09;6159060;28;103453;-76
2022/09/09 12:37:34;;;;;;;7.77;7.17;;;;;;;25.30;45.17;95111.34;6164914;28;104038;-74
2022/09/09 12:40:39;;;;;;;8.30;7.70;;;;;;;25.32;45.01;95105.66;6164139;28;103450;-76
2022/09/09 12:43:42;;;;;;;7.77;7.23;;;;;;;25.30;44.93;95105.19;6156339;28;103965;-76
2022/09/09 12:46:47;;;;;;;8.80;8.10;;;;;;;25.30;45.34;95091.81;6165557;28;103474;-76
2022/09/09 12:49:51;;;;;;;8.53;7.70;;;;;;;25.31;45.12;95098.72;6164009;28;103564;-76
2022/09/09 12:52:58;;;;;;;8.70;7.93;;;;;;;25.31;45.04;95096.84;6164330;28;103279;-77
2022/09/09 12:56:07;;;;;;;9.10;8.30;;;;;;;25.30;45.22;95102.53;6154513;28;104731;-77
2022/09/09 12:59:24;;;;;;;8.43;7.83;;;;;;;25.30;45.43;95092.59;6164654;28;105235;-76
2022/09/09 13:02:28;;;;;;;8.70;8.00;;;;;;;25.31;45.28;95093.38;6164323;28;105020;-75
2022/09/09 13:05:37;;;;;;;8.60;7.90;;;;;;;25.32;45.43;95084.22;6159667;28;104640;-74
2022/09/09 13:08:40;;;;;;;8.60;8.00;;;;;;;25.32;45.09;95084.22;6162995;28;104505;-74
2022/09/09 13:11:51;;;;;;;8.07;7.47;;;;;;;25.33;45.22;95075.06;6163346;28;104458;-76
2022/09/09 13:14:57;;;;;;;8.60;8.00;;;;;;;25.35;45.28;95075.56;6163757;28;104497;-75
2022/09/09 13:18:04;;;;;;;8.20;7.50;;;;;;;25.34;45.21;95072.06;6154519;28;104210;-74
2022/09/09 13:21:07;;;;;;;8.63;7.63;;;;;;;25.34;45.34;95069.38;6164335;28;103436;-76
2022/09/09 13:24:29;;;;;;;9.20;8.37;;;;;;;25.34;45.05;95065.94;6163647;28;102985;-76
2022/09/09 13:27:38;;;;;;;8.83;8.13;;;;;;;25.33;45.39;95070.50;6163442;28;103405;-75
2022/09/09 13:30:43;;;;;;;8.50;7.80;;;;;;;25.34;45.22;95064.03;6157393;28;103338;-76
2022/09/09 13:33:47;;;;;;;8.20;7.60;;;;;;;25.35;45.45;95062.94;6163608;28;103618;-76
2022/09/09 13:36:52;;;;;;;9.03;8.33;;;;;;;25.35;45.49;95054.13;6164305;28;105248;-74
2022/09/09 13:40:02;;;;;;;9.13;8.50;;;;;;;25.33;45.30;95051.75;6155394;28;104037;-76
2022/09/09 13:43:17;;;;;;;9.07;8.27;;;;;;;25.25;45.42;95041.91;6163456;28;103441;-75
2022/09/09 13:46:29;;;;;;;9.00;8.30;;;;;;;25.34;45.55;95060.56;6163854;28;106345;-75
2022/09/09 13:49:33;;;;;;;9.10;8.40;;;;;;;25.32;45.50;95052.06;6163782;28;103498;-74
2022/09/09 13:52:37;;;;;;;9.10;8.50;;;;;;;25.31;45.51;95051.28;6155069;28;103465;-76
2022/09/09 13:55:40;;;;;;;8.77;8.07;;;;;;;25.32;45.44;95036.78;6163199;28;103361;-74
2022/09/09 13:58:45;;;;;;;7.97;7.47;;;;;;;25.34;45.34;95031.88;6161922;28;106450;-75
2022/09/09 14:01:49;;;;;;;9.03;8.43;;;;;;;25.29;45.22;95032.09;6160728;28;103151;-76
2022/09/09 14:04:55;;;;;;;9.40;8.60;;;;;;;25.29;46.00;95033.97;6158086;28;103238;-75
2022/09/09 14:08:00;;;;;;;9.30;8.60;;;;;;;25.28;46.24;95029.75;6163045;28;102970;-76
2022/09/09 14:11:03;;;;;;;9.40;8.70;;;;;;;25.29;46.48;95036.66;6162886;28;103115;-77
2022/09/09 14:14:08;;;;;;;9.67;8.87;;;;;;;25.30;46.11;95030.19;6155558;28;103756;-76
2022/09/09 14:17:11;;;;;;;9.93;9.00;;;;;;;25.32;46.67;95030.66;6163409;28;102923;-76
2022/09/09 14:20:15;;;;;;;10.10;9.40;;;;;;;25.33;46.58;95029.53;6163824;28;106138;-77
2022/09/09 14:23:18;;;;;;;10.70;9.70;;;;;;;25.36;46.61;95031.59;6162810;28;105627;-76
2022/09/09 14:26:23;;;;;;;10.50;9.50;;;;;;;25.32;46.30;95026.06;6154313;28;103259;-75
2022/09/09 14:29:28;;;;;;;10.47;9.43;;;;;;;25.29;46.39;95023.28;6185554;28;103408;-76